createdAt,value
2022-12-26T00:01:35.408Z,10.10
2022-12-26T00:04:02.110Z,10.10
2022-12-26T00:06:28.989Z,10.10
2022-12-26T00:08:55.560Z,10.00
2022-12-26T00:11:22.150Z,10.00
2022-12-26T00:13:52.883Z,10.00
2022-12-26T00:16:19.912Z,10.00
2022-12-26T00:18:46.542Z,10.00
2022-12-26T00:21:13.499Z,10.00
2022-12-26T00:23:40.147Z,10.00
2022-12-26T00:26:07.668Z,10.00
2022-12-26T00:28:34.255Z,9.90
2022-12-26T00:31:07.974Z,9.90
2022-12-26T00:33:35.457Z,9.90
2022-12-26T00:36:02.719Z,10.00
2022-12-26T00:38:29.375Z,10.00
2022-12-26T00:40:55.919Z,10.00
2022-12-26T00:43:22.481Z,10.00
2022-12-26T00:45:49.077Z,10.10
2022-12-26T00:48:15.647Z,10.10
2022-12-26T00:50:42.186Z,10.10
2022-12-26T00:53:08.747Z,10.10
2022-12-26T00:55:35.297Z,10.10
2022-12-26T00:58:01.887Z,10.10
2022-12-26T01:00:28.524Z,10.10
2022-12-26T01:02:55.355Z,10.10
2022-12-26T01:05:22.666Z,10.10
2022-12-26T01:08:20.145Z,10.20
2022-12-26T01:10:35.728Z,10.20
2022-12-26T01:13:02.274Z,10.20
2022-12-26T01:15:28.826Z,10.20
2022-12-26T01:17:55.422Z,10.20
2022-12-26T01:20:21.978Z,10.20
2022-12-26T01:22:48.527Z,10.20
2022-12-26T01:25:15.075Z,10.30
2022-12-26T01:27:41.629Z,10.20
2022-12-26T01:30:08.393Z,10.30
2022-12-26T01:32:34.941Z,10.20
2022-12-26T01:35:01.500Z,10.30
2022-12-26T01:37:28.043Z,10.30
2022-12-26T01:39:54.606Z,10.30
2022-12-26T01:42:21.976Z,10.30
2022-12-26T01:45:11.880Z,10.40
2022-12-26T01:47:39.947Z,10.40
2022-12-26T01:50:06.782Z,10.40
2022-12-26T01:52:35.732Z,10.40
2022-12-26T01:55:02.283Z,10.40
2022-12-26T01:57:30.539Z,10.40
2022-12-26T01:59:57.276Z,10.40
2022-12-26T02:02:24.022Z,10.40
2022-12-26T02:05:09.290Z,10.30
2022-12-26T02:07:36.397Z,10.30
2022-12-26T02:10:03.164Z,10.30
2022-12-26T02:12:35.018Z,10.20
2022-12-26T02:15:05.486Z,10.10
2022-12-26T02:17:32.047Z,10.10
2022-12-26T02:20:05.491Z,10.10
2022-12-26T02:22:35.004Z,10.10
2022-12-26T02:25:19.874Z,10.10
2022-12-26T02:27:49.511Z,10.10
2022-12-26T02:30:22.054Z,10.10
2022-12-26T02:32:48.538Z,10.10
2022-12-26T02:35:18.047Z,10.00
2022-12-26T02:37:49.920Z,10.00
2022-12-26T02:40:22.826Z,10.00
2022-12-26T02:43:00.086Z,10.00
2022-12-26T02:45:59.146Z,10.00
2022-12-26T02:48:39.629Z,10.10
2022-12-26T02:51:24.890Z,10.10
2022-12-26T02:54:17.212Z,10.10
2022-12-26T02:57:04.085Z,10.20
2022-12-26T02:59:55.842Z,10.20
2022-12-26T03:02:43.873Z,10.10
2022-12-26T03:05:31.319Z,10.10
2022-12-26T03:08:16.792Z,10.20
2022-12-26T03:11:02.077Z,10.20
2022-12-26T03:13:29.983Z,10.20
2022-12-26T03:16:22.569Z,10.30
2022-12-26T03:18:59.472Z,10.20
2022-12-26T03:21:27.908Z,10.20
2022-12-26T03:23:54.518Z,10.20
2022-12-26T03:26:39.948Z,10.20
2022-12-26T03:29:29.355Z,10.30
2022-12-26T03:31:55.936Z,10.30
2022-12-26T03:34:22.522Z,10.30
2022-12-26T03:36:52.150Z,10.30
2022-12-26T03:39:55.289Z,10.20
2022-12-26T03:42:43.259Z,10.30
2022-12-26T03:45:41.246Z,10.30
2022-12-26T03:48:45.146Z,10.30
2022-12-26T03:51:38.339Z,10.30
2022-12-26T03:54:25.089Z,10.20
2022-12-26T03:57:20.598Z,10.20
2022-12-26T04:00:07.500Z,10.20
2022-12-26T04:02:52.556Z,10.20
2022-12-26T04:05:37.537Z,10.20
2022-12-26T04:08:24.634Z,10.30
2022-12-26T04:11:12.612Z,10.20
2022-12-26T04:14:07.171Z,10.20
2022-12-26T04:16:58.450Z,10.20
2022-12-26T04:19:27.855Z,10.20
2022-12-26T04:22:31.104Z,10.20
2022-12-26T04:25:49.418Z,10.20
2022-12-26T04:28:32.261Z,10.20
2022-12-26T04:31:19.064Z,10.20
2022-12-26T04:34:06.308Z,10.10
2022-12-26T04:37:10.429Z,10.10
2022-12-26T04:39:55.456Z,10.20
2022-12-26T04:42:40.689Z,10.20
2022-12-26T04:45:07.415Z,10.20
2022-12-26T04:47:33.948Z,10.30
2022-12-26T04:50:12.628Z,10.30
2022-12-26T04:52:57.931Z,10.30
2022-12-26T04:55:28.192Z,10.30
2022-12-26T04:57:54.786Z,10.20
2022-12-26T05:00:21.894Z,10.30
2022-12-26T05:03:07.214Z,10.20
2022-12-26T05:05:54.365Z,10.30
2022-12-26T05:09:03.048Z,10.30
2022-12-26T05:11:30.184Z,10.30
2022-12-26T05:13:56.912Z,10.30
2022-12-26T05:16:42.182Z,10.30
2022-12-26T05:19:35.296Z,10.30
2022-12-26T05:22:20.746Z,10.30
2022-12-26T05:25:05.677Z,10.30
2022-12-26T05:27:55.171Z,10.30
2022-12-26T05:30:21.931Z,10.30
2022-12-26T05:33:07.148Z,10.20
2022-12-26T05:35:33.924Z,10.30
2022-12-26T05:38:00.715Z,10.30
2022-12-26T05:40:27.287Z,10.30
2022-12-26T05:42:53.825Z,10.30
2022-12-26T05:45:20.421Z,10.30
2022-12-26T05:47:51.680Z,10.30
2022-12-26T05:50:18.661Z,10.20
2022-12-26T05:52:45.196Z,10.30
2022-12-26T05:55:11.758Z,10.20
2022-12-26T05:57:38.450Z,10.20
2022-12-26T06:00:05.336Z,10.20
2022-12-26T06:02:31.925Z,10.20
2022-12-26T06:04:58.553Z,10.20
2022-12-26T06:07:25.093Z,10.20
2022-12-26T06:09:51.653Z,10.20
2022-12-26T06:12:18.389Z,10.20
2022-12-26T06:14:44.973Z,10.20
2022-12-26T06:17:11.528Z,10.20
2022-12-26T06:19:43.123Z,10.20
2022-12-26T06:22:13.149Z,10.10
2022-12-26T06:24:39.720Z,10.10
2022-12-26T06:27:06.262Z,10.10
2022-12-26T06:29:33.133Z,10.10
2022-12-26T06:31:59.844Z,10.10
2022-12-26T06:34:27.656Z,10.10
2022-12-26T06:36:55.448Z,10.10
2022-12-26T06:39:22.416Z,10.10
2022-12-26T06:41:48.953Z,10.10
2022-12-26T06:44:18.538Z,10.10
2022-12-26T06:46:45.521Z,10.10
2022-12-26T06:49:12.119Z,10.00
2022-12-26T06:51:38.721Z,10.00
2022-12-26T06:54:05.314Z,10.00
2022-12-26T06:56:32.087Z,10.00
2022-12-26T06:58:59.441Z,10.00
2022-12-26T07:01:26.384Z,10.00
2022-12-26T07:03:53.244Z,10.00
2022-12-26T07:06:26.610Z,9.90
2022-12-26T07:08:53.514Z,10.00
2022-12-26T07:11:27.486Z,10.00
2022-12-26T07:13:54.218Z,10.00
2022-12-26T07:16:20.843Z,10.00
2022-12-26T07:18:47.446Z,10.00
2022-12-26T07:21:14.726Z,10.00
2022-12-26T07:23:41.375Z,10.00
2022-12-26T07:26:07.956Z,10.00
2022-12-26T07:28:34.726Z,10.00
2022-12-26T07:31:01.339Z,10.00
2022-12-26T07:33:28.213Z,10.10
2022-12-26T07:35:54.803Z,10.10
2022-12-26T07:38:21.356Z,10.10
2022-12-26T07:40:47.914Z,10.00
2022-12-26T07:43:14.537Z,10.00
2022-12-26T07:45:45.536Z,10.00
2022-12-26T07:48:12.445Z,10.00
2022-12-26T07:50:39.004Z,10.00
2022-12-26T07:53:05.603Z,10.00
2022-12-26T07:55:32.163Z,10.00
2022-12-26T07:57:58.702Z,10.00
2022-12-26T08:00:25.279Z,9.90
2022-12-26T08:02:53.240Z,10.00
2022-12-26T08:05:20.950Z,10.00
2022-12-26T08:07:48.417Z,10.00
2022-12-26T08:10:15.588Z,10.00
2022-12-26T08:12:42.125Z,10.00
2022-12-26T08:15:10.016Z,9.90
2022-12-26T08:17:36.602Z,9.90
2022-12-26T08:20:03.539Z,9.90
2022-12-26T08:22:30.106Z,9.90
2022-12-26T08:24:56.692Z,9.80
2022-12-26T08:27:23.251Z,9.90
2022-12-26T08:29:49.869Z,9.90
2022-12-26T08:32:16.469Z,9.90
2022-12-26T08:34:43.068Z,9.80
2022-12-26T08:37:09.713Z,9.80
2022-12-26T08:39:36.325Z,9.80
2022-12-26T08:42:02.904Z,9.80
2022-12-26T08:44:29.569Z,9.80
2022-12-26T08:46:56.170Z,9.80
2022-12-26T08:49:22.740Z,9.80
2022-12-26T08:51:49.334Z,9.80
2022-12-26T08:54:15.883Z,9.80
2022-12-26T08:56:42.890Z,9.70
2022-12-26T08:59:09.445Z,9.70
2022-12-26T09:01:36.387Z,9.70
2022-12-26T09:04:03.683Z,9.70
2022-12-26T09:06:32.011Z,9.70
2022-12-26T09:08:58.927Z,9.70
2022-12-26T09:11:28.910Z,9.70
2022-12-26T09:13:55.872Z,9.70
2022-12-26T09:16:24.809Z,9.60
2022-12-26T09:18:54.870Z,9.60
2022-12-26T09:21:21.456Z,9.60
2022-12-26T09:23:48.000Z,9.60
2022-12-26T09:26:15.478Z,9.60
2022-12-26T09:28:42.170Z,9.60
2022-12-26T09:31:10.412Z,9.60
2022-12-26T09:33:38.496Z,9.60
2022-12-26T09:36:12.529Z,9.60
2022-12-26T09:38:41.054Z,9.60
2022-12-26T09:41:10.945Z,9.60
2022-12-26T09:43:50.036Z,9.60
2022-12-26T09:46:19.275Z,9.60
2022-12-26T09:48:47.175Z,9.60
2022-12-26T09:51:13.981Z,9.60
2022-12-26T09:53:41.847Z,9.70
2022-12-26T09:56:23.623Z,9.80
2022-12-26T09:59:00.611Z,9.70
2022-12-26T10:01:28.815Z,9.80
2022-12-26T10:03:56.799Z,9.70
2022-12-26T10:06:24.288Z,9.70
2022-12-26T10:08:56.880Z,9.70
2022-12-26T10:11:46.880Z,9.80
2022-12-26T10:14:21.957Z,9.80
2022-12-26T10:16:57.019Z,9.80
2022-12-26T10:19:32.929Z,9.80
2022-12-26T10:22:04.276Z,9.90
2022-12-26T10:24:31.677Z,9.90
2022-12-26T10:27:02.223Z,9.80
2022-12-26T10:29:39.218Z,9.80
2022-12-26T10:32:06.964Z,9.80
2022-12-26T10:34:37.831Z,9.80
2022-12-26T10:37:05.644Z,9.80
2022-12-26T10:39:34.278Z,9.80
2022-12-26T10:42:03.592Z,9.70
2022-12-26T10:44:30.189Z,9.60
2022-12-26T10:47:06.112Z,9.70
2022-12-26T10:49:32.672Z,9.70
2022-12-26T10:51:59.729Z,9.70
2022-12-26T10:54:26.716Z,9.60
2022-12-26T10:56:53.500Z,9.60
2022-12-26T10:59:21.047Z,9.60
2022-12-26T11:01:47.878Z,9.50
2022-12-26T11:04:18.869Z,9.50
2022-12-26T11:06:52.494Z,9.60
2022-12-26T11:09:28.168Z,9.60
2022-12-26T11:11:54.720Z,9.70
2022-12-26T11:14:38.483Z,9.70
2022-12-26T11:17:07.228Z,9.80
2022-12-26T11:19:34.993Z,9.90
2022-12-26T11:22:14.893Z,9.90
2022-12-26T11:24:41.470Z,10.10
2022-12-26T11:27:17.938Z,10.20
2022-12-26T11:29:44.472Z,10.30
2022-12-26T11:32:13.973Z,10.40
2022-12-26T11:34:46.193Z,10.50
2022-12-26T11:37:26.613Z,10.60
2022-12-26T11:39:53.172Z,10.70
2022-12-26T11:42:20.557Z,10.70
2022-12-26T11:44:49.248Z,10.50
2022-12-26T11:47:19.619Z,10.50
2022-12-26T11:50:04.959Z,10.50
2022-12-26T11:52:45.723Z,10.50
2022-12-26T11:55:32.441Z,10.60
2022-12-26T11:58:07.995Z,10.60
2022-12-26T12:00:35.162Z,10.70
2022-12-26T12:03:02.560Z,10.80
2022-12-26T12:05:46.843Z,10.90
2022-12-26T12:08:25.649Z,10.80
2022-12-26T12:11:00.215Z,10.80
2022-12-26T12:13:40.976Z,10.80
2022-12-26T12:16:07.994Z,10.80
2022-12-26T12:18:52.941Z,10.60
2022-12-26T12:21:23.977Z,10.50
2022-12-26T12:24:08.967Z,10.40
2022-12-26T12:26:57.673Z,10.40
2022-12-26T12:29:42.649Z,10.30
2022-12-26T12:32:13.546Z,10.30
2022-12-26T12:35:02.899Z,10.20
2022-12-26T12:37:29.496Z,10.20
2022-12-26T12:40:14.846Z,10.20
2022-12-26T12:42:47.495Z,10.20
2022-12-26T12:45:17.610Z,10.30
2022-12-26T12:47:44.159Z,10.30
2022-12-26T12:50:17.778Z,10.30
2022-12-26T12:52:50.534Z,10.30
2022-12-26T12:55:23.038Z,10.40
2022-12-26T12:57:53.825Z,10.30
2022-12-26T13:00:23.992Z,10.30
2022-12-26T13:02:55.932Z,10.30
2022-12-26T13:05:22.600Z,10.30
2022-12-26T13:08:09.409Z,10.30
2022-12-26T13:10:38.081Z,10.30
2022-12-26T13:13:13.747Z,10.30
2022-12-26T13:15:42.237Z,10.30
2022-12-26T13:18:13.419Z,10.30
2022-12-26T13:20:42.980Z,10.30
2022-12-26T13:23:44.351Z,10.30
2022-12-26T13:26:11.738Z,10.30
2022-12-26T13:28:40.925Z,10.30
2022-12-26T13:31:07.466Z,10.30
2022-12-26T13:33:34.040Z,10.30
2022-12-26T13:36:01.517Z,10.30
2022-12-26T13:39:07.835Z,10.30
2022-12-26T13:41:53.349Z,10.30
2022-12-26T13:44:20.301Z,10.30
2022-12-26T13:46:46.931Z,10.40
2022-12-26T13:49:35.964Z,10.40
2022-12-26T13:52:12.058Z,10.30
2022-12-26T13:54:48.345Z,10.30
2022-12-26T13:57:27.028Z,10.40
2022-12-26T14:00:00.582Z,10.50
2022-12-26T14:03:15.423Z,10.50
2022-12-26T14:05:30.535Z,10.50
2022-12-26T14:08:06.406Z,10.50
2022-12-26T14:10:38.530Z,10.40
2022-12-26T14:13:23.824Z,10.50
2022-12-26T14:15:50.577Z,10.40
2022-12-26T14:18:36.278Z,10.40
2022-12-26T14:21:16.756Z,10.30
2022-12-26T14:23:45.731Z,10.30
2022-12-26T14:26:18.421Z,10.30
2022-12-26T14:29:03.902Z,10.20
2022-12-26T14:31:42.658Z,10.20
2022-12-26T14:34:12.591Z,10.10
2022-12-26T14:36:45.265Z,10.00
2022-12-26T14:39:30.503Z,10.10
2022-12-26T14:42:24.975Z,10.10
2022-12-26T14:44:57.766Z,10.10
2022-12-26T14:47:43.187Z,10.00
2022-12-26T14:50:28.556Z,10.00
2022-12-26T14:52:55.162Z,9.90
2022-12-26T14:56:01.126Z,9.90
2022-12-26T14:58:38.516Z,9.90
2022-12-26T15:01:15.790Z,9.90
2022-12-26T15:03:54.522Z,9.90
2022-12-26T15:06:21.665Z,9.90
2022-12-26T15:08:54.006Z,10.00
2022-12-26T15:11:35.996Z,9.90
2022-12-26T15:14:14.308Z,9.90
2022-12-26T15:16:53.369Z,9.90
2022-12-26T15:19:39.221Z,9.70
2022-12-26T15:22:28.758Z,9.60
2022-12-26T15:25:19.302Z,9.40
2022-12-26T15:27:57.102Z,9.30
2022-12-26T15:30:42.580Z,9.20
2022-12-26T15:33:28.168Z,9.10
2022-12-26T15:36:13.432Z,9.00
2022-12-26T15:38:45.824Z,9.00
2022-12-26T15:41:29.166Z,8.80
2022-12-26T15:44:11.058Z,8.80
2022-12-26T15:46:42.081Z,8.70
2022-12-26T15:49:21.197Z,8.70
2022-12-26T15:51:52.345Z,8.60
2022-12-26T15:54:24.275Z,8.60
2022-12-26T15:56:56.268Z,8.60
2022-12-26T15:59:31.911Z,8.60
2022-12-26T16:01:58.983Z,8.60
2022-12-26T16:04:30.591Z,8.50
2022-12-26T16:07:15.884Z,8.50
2022-12-26T16:09:49.883Z,8.50
2022-12-26T16:12:21.170Z,8.40
2022-12-26T16:14:48.003Z,8.40
2022-12-26T16:17:14.880Z,8.40
2022-12-26T16:19:41.949Z,8.30
2022-12-26T16:22:29.851Z,8.30
2022-12-26T16:24:56.477Z,8.40
2022-12-26T16:27:23.530Z,8.40
2022-12-26T16:29:51.441Z,8.40
2022-12-26T16:32:18.986Z,8.50
2022-12-26T16:34:45.570Z,8.50
2022-12-26T16:37:22.081Z,8.40
2022-12-26T16:40:04.965Z,8.40
2022-12-26T16:42:31.716Z,8.40
2022-12-26T16:44:58.546Z,8.40
2022-12-26T16:47:25.258Z,8.40
2022-12-26T16:49:52.051Z,8.50
2022-12-26T16:52:51.169Z,8.50
2022-12-26T16:55:36.534Z,8.40
2022-12-26T16:58:26.754Z,8.40
2022-12-26T17:01:13.578Z,8.40
2022-12-26T17:03:56.431Z,8.30
2022-12-26T17:06:37.983Z,8.30
2022-12-26T17:09:11.642Z,8.20
2022-12-26T17:11:39.657Z,8.10
2022-12-26T17:14:06.935Z,8.00
2022-12-26T17:16:33.553Z,8.00
2022-12-26T17:19:09.354Z,8.00
2022-12-26T17:21:37.219Z,7.90
2022-12-26T17:24:05.168Z,7.90
2022-12-26T17:26:31.720Z,7.90
2022-12-26T17:28:58.557Z,7.80
2022-12-26T17:31:37.920Z,7.80
2022-12-26T17:34:14.626Z,7.80
2022-12-26T17:39:29.413Z,7.90
2022-12-26T17:41:59.562Z,7.90
2022-12-26T17:44:32.914Z,7.80
2022-12-26T17:47:01.004Z,7.80
2022-12-26T17:49:27.647Z,7.70
2022-12-26T17:52:01.463Z,7.60
2022-12-26T17:54:28.436Z,7.60
2022-12-26T17:56:55.017Z,7.50
2022-12-26T17:59:21.575Z,7.40
2022-12-26T18:01:48.261Z,7.40
2022-12-26T18:04:14.905Z,7.30
2022-12-26T18:06:42.189Z,7.30
2022-12-26T18:09:10.988Z,7.30
2022-12-26T18:11:38.731Z,7.20
2022-12-26T18:14:06.013Z,7.30
2022-12-26T18:16:33.562Z,7.30
2022-12-26T18:19:00.194Z,7.30
2022-12-26T18:21:26.745Z,7.30
2022-12-26T18:23:53.569Z,7.20
2022-12-26T18:26:23.518Z,7.20
2022-12-26T18:28:50.530Z,7.20
2022-12-26T18:31:17.832Z,7.20
2022-12-26T18:33:44.710Z,7.20
2022-12-26T18:36:11.755Z,7.20
2022-12-26T18:38:38.337Z,7.10
2022-12-26T18:41:04.889Z,7.20
2022-12-26T18:43:31.504Z,7.20
2022-12-26T18:45:58.340Z,7.20
2022-12-26T18:48:24.923Z,7.20
2022-12-26T18:50:51.526Z,7.10
2022-12-26T18:53:18.145Z,7.10
2022-12-26T18:55:44.733Z,7.10
2022-12-26T18:58:11.277Z,7.10
2022-12-26T19:00:37.961Z,7.00
2022-12-26T19:03:04.601Z,7.00
2022-12-26T19:05:34.390Z,6.90
2022-12-26T19:08:01.547Z,6.80
2022-12-26T19:10:29.165Z,6.80
2022-12-26T19:13:01.271Z,6.70
2022-12-26T19:15:32.206Z,6.70
2022-12-26T19:17:58.810Z,6.60
2022-12-26T19:20:25.893Z,6.60
2022-12-26T19:22:52.586Z,6.60
2022-12-26T19:25:19.588Z,6.60
2022-12-26T19:27:46.191Z,6.60
2022-12-26T19:30:12.951Z,6.50
2022-12-26T19:32:39.570Z,6.50
2022-12-26T19:35:06.361Z,6.50
2022-12-26T19:37:32.898Z,6.50
2022-12-26T19:39:59.468Z,6.40
2022-12-26T19:42:26.285Z,6.40
2022-12-26T19:44:53.469Z,6.40
2022-12-26T19:47:20.062Z,6.30
2022-12-26T19:49:46.669Z,6.30
2022-12-26T19:52:13.649Z,6.30
2022-12-26T19:54:40.398Z,6.30
2022-12-26T19:57:06.991Z,6.20
2022-12-26T19:59:36.640Z,6.20
2022-12-26T20:02:03.402Z,6.20
2022-12-26T20:04:30.156Z,6.10
2022-12-26T20:06:59.075Z,6.10
2022-12-26T20:09:25.623Z,6.10
2022-12-26T20:11:54.148Z,6.00
2022-12-26T20:14:21.068Z,6.00
2022-12-26T20:17:08.576Z,6.00
2022-12-26T20:19:35.351Z,6.00
2022-12-26T20:22:01.942Z,5.90
2022-12-26T20:24:28.486Z,5.80
2022-12-26T20:26:55.069Z,5.70
2022-12-26T20:29:21.615Z,5.70
2022-12-26T20:31:48.201Z,5.80
2022-12-26T20:34:14.958Z,5.80
2022-12-26T20:36:41.638Z,5.80
2022-12-26T20:39:10.488Z,5.80
2022-12-26T20:41:37.083Z,5.70
2022-12-26T20:44:03.722Z,5.70
2022-12-26T20:46:32.023Z,5.70
2022-12-26T20:48:58.925Z,5.80
2022-12-26T20:51:29.020Z,5.80
2022-12-26T20:53:59.797Z,5.80
2022-12-26T20:56:26.389Z,5.80
2022-12-26T20:58:52.946Z,5.80
2022-12-26T21:01:20.340Z,5.80
2022-12-26T21:03:47.094Z,5.80
2022-12-26T21:06:14.611Z,5.80
2022-12-26T21:08:42.073Z,5.80
2022-12-26T21:11:18.651Z,5.70
2022-12-26T21:13:45.560Z,5.70
2022-12-26T21:16:16.527Z,5.60
2022-12-26T21:18:43.143Z,5.60
2022-12-26T21:21:22.611Z,5.50
2022-12-26T21:23:49.206Z,5.50
2022-12-26T21:26:15.772Z,5.50
2022-12-26T21:28:42.340Z,5.50
2022-12-26T21:31:09.193Z,5.50
2022-12-26T21:33:40.686Z,5.40
2022-12-26T21:36:11.009Z,5.40
2022-12-26T21:38:37.576Z,5.30
2022-12-26T21:41:06.173Z,5.30
2022-12-26T21:43:32.710Z,5.30
2022-12-26T21:46:01.354Z,5.30
2022-12-26T21:48:28.183Z,5.30
2022-12-26T21:50:54.797Z,5.30
2022-12-26T21:53:21.448Z,5.30
2022-12-26T21:55:48.042Z,5.20
2022-12-26T21:58:14.836Z,5.20
2022-12-26T22:00:42.016Z,5.10
2022-12-26T22:03:27.397Z,5.10
2022-12-26T22:05:54.055Z,5.00
2022-12-26T22:08:20.614Z,5.00
2022-12-26T22:11:05.879Z,4.90
2022-12-26T22:13:39.660Z,4.80
2022-12-26T22:16:07.791Z,4.70
2022-12-26T22:18:34.419Z,4.70
2022-12-26T22:21:01.729Z,4.50
2022-12-26T22:23:28.281Z,4.30
2022-12-26T22:25:55.339Z,4.20
2022-12-26T22:28:23.533Z,4.10
2022-12-26T22:30:50.378Z,4.00
2022-12-26T22:33:17.388Z,4.00
2022-12-26T22:35:44.202Z,4.00
2022-12-26T22:38:10.750Z,3.90
2022-12-26T22:40:37.325Z,3.90
2022-12-26T22:43:03.985Z,3.80
2022-12-26T22:45:30.568Z,3.70
2022-12-26T22:47:57.108Z,3.70
2022-12-26T22:50:23.716Z,3.70
2022-12-26T22:52:51.857Z,3.60
2022-12-26T22:55:18.399Z,3.50
2022-12-26T22:57:51.078Z,3.50
2022-12-26T23:00:19.062Z,3.50
2022-12-26T23:02:45.689Z,3.50
2022-12-26T23:05:12.546Z,3.50
2022-12-26T23:07:39.250Z,3.40
2022-12-26T23:10:06.126Z,3.40
2022-12-26T23:12:45.022Z,3.30
2022-12-26T23:15:12.779Z,3.30
2022-12-26T23:17:58.139Z,3.30
2022-12-26T23:20:43.530Z,3.10
2022-12-26T23:23:10.231Z,3.10
2022-12-26T23:25:37.701Z,3.10
2022-12-26T23:28:22.885Z,3.10
2022-12-26T23:30:49.508Z,3.20
2022-12-26T23:33:16.074Z,3.20
2022-12-26T23:35:42.710Z,3.30
2022-12-26T23:38:09.451Z,3.20
2022-12-26T23:40:36.049Z,3.10
2022-12-26T23:43:02.627Z,3.10
2022-12-26T23:45:29.361Z,3.10
2022-12-26T23:47:55.929Z,3.00
2022-12-26T23:50:22.493Z,3.00
2022-12-26T23:52:49.068Z,3.00
2022-12-26T23:55:15.644Z,2.90
2022-12-26T23:57:42.196Z,2.90
